Terminal Aerodrome Forecast
Issued by NWS Grand Forks, ND

Home | Current Version | Previous Version | Text Only | Print | Product List | Glossary On
Versions: 1 2 3 4 5 6 7 8 9 10 11 12 13 14 15 16 17 18 19 20
466
FTUS43 KFGF 231137
TAFGFK
TAF
KGFK 231137Z 2312/2412 07008KT P6SM OVC090
     FM240000 11011KT P6SM VCSH OVC025
     FM240300 12012KT P6SM OVC025
     FM240700 12012KT P6SM OVC015=

USA.gov is the U.S. government's official web portal to all federal, state and local government web resources and services.